Time;durP1;ratioP1;P1;durP2;ratioP2;P2;SDS_P1;SDS_P2;PMS_P1;PMS_P2;Temp;Humidity;BMP_temperature;BMP_pressure;BME280_temperature;BME280_humidity;BME280_pressure;Samples;Min_cycle;Max_cycle;Signal;HPM_P1;HPM_P2
2022/04/24 00:00:15;;;;;;;7.93;7.23;;;14.70;69.60;;;;;;5019405;28;20936;-69
2022/04/24 00:02:41;;;;;;;7.30;6.60;;;14.70;69.80;;;;;;5011571;28;20688;-68
2022/04/24 00:05:07;;;;;;;7.90;7.30;;;14.60;70.10;;;;;;5014534;28;20538;-76
2022/04/24 00:07:33;;;;;;;8.07;7.30;;;14.70;70.10;;;;;;5012344;28;20269;-68
2022/04/24 00:09:59;;;;;;;7.83;7.17;;;14.50;69.70;;;;;;5012824;28;20914;-67
2022/04/24 00:12:25;;;;;;;7.97;7.37;;;14.50;69.90;;;;;;4994856;28;20195;-68
2022/04/24 00:14:51;;;;;;;7.97;7.37;;;14.50;70.50;;;;;;5013836;28;20250;-68
2022/04/24 00:17:20;;;;;;;7.87;7.27;;;14.40;69.70;;;;;;5007371;28;20879;-68
2022/04/24 00:19:47;;;;;;;7.10;6.50;;;14.20;70.10;;;;;;5011975;28;20847;-69
2022/04/24 00:22:12;;;;;;;8.03;7.33;;;14.20;71.00;;;;;;5012639;28;20433;-70
2022/04/24 00:24:38;;;;;;;7.60;7.00;;;14.20;70.70;;;;;;5012821;28;20511;-68
2022/04/24 00:27:04;;;;;;;8.37;7.10;;;14.20;71.20;;;;;;5011459;28;20185;-69
2022/04/24 00:29:30;;;;;;;7.27;6.67;;;14.20;71.60;;;;;;5011929;28;20194;-67
2022/04/24 00:31:56;;;;;;;7.53;6.90;;;14.00;71.10;;;;;;5012508;28;20437;-69
2022/04/24 00:34:22;;;;;;;7.53;6.80;;;13.90;71.80;;;;;;5009630;28;20568;-69
2022/04/24 00:36:48;;;;;;;6.87;6.33;;;14.00;72.60;;;;;;5013123;28;20220;-68
2022/04/24 00:39:14;;;;;;;7.17;6.57;;;14.00;72.20;;;;;;5012382;28;21028;-70
2022/04/24 00:41:47;;;;;;;8.00;7.40;;;14.00;71.80;;;;;;5012090;28;20451;-68
2022/04/24 00:44:18;;;;;;;7.70;7.10;;;14.00;71.80;;;;;;4999989;28;20456;-73
2022/04/24 00:46:59;;;;;;;7.57;6.97;;;14.10;71.80;;;;;;5013113;28;20437;-68
2022/04/24 00:49:25;;;;;;;7.40;6.83;;;14.10;72.10;;;;;;5010849;28;20594;-67
2022/04/24 00:51:52;;;;;;;7.43;6.77;;;14.10;72.40;;;;;;5011009;28;21021;-67
2022/04/24 00:54:18;;;;;;;8.57;7.77;;;14.00;72.10;;;;;;5010272;28;20520;-70
2022/04/24 00:56:44;;;;;;;8.30;7.60;;;14.00;72.20;;;;;;5013417;28;20526;-67
2022/04/24 00:59:12;;;;;;;8.23;7.43;;;14.00;72.20;;;;;;5008787;28;20437;-71
2022/04/24 01:01:39;;;;;;;8.10;7.40;;;14.00;72.00;;;;;;5012108;28;20445;-67
2022/04/24 01:04:07;;;;;;;8.60;7.80;;;13.90;73.00;;;;;;4994717;28;20452;-68
2022/04/24 01:06:39;;;;;;;7.73;7.13;;;13.90;73.20;;;;;;5007900;28;20445;-69
2022/04/24 01:09:20;;;;;;;8.97;8.17;;;13.90;73.50;;;;;;4994957;28;20807;-69
2022/04/24 01:11:48;;;;;;;8.73;7.97;;;13.90;73.20;;;;;;5008221;28;20559;-70
2022/04/24 01:14:16;;;;;;;8.53;7.77;;;13.90;73.20;;;;;;5006883;28;20451;-77
2022/04/24 01:16:43;;;;;;;7.60;7.00;;;13.80;73.40;;;;;;5012350;28;20445;-69
2022/04/24 01:19:12;;;;;;;8.80;8.10;;;13.80;73.50;;;;;;5011892;28;20445;-73
2022/04/24 01:21:41;;;;;;;8.43;7.70;;;13.70;73.60;;;;;;5010492;28;20443;-69
2022/04/24 01:24:08;;;;;;;10.10;7.60;;;13.70;73.70;;;;;;5007901;28;20947;-68
2022/04/24 01:26:35;;;;;;;9.00;8.20;;;13.70;73.90;;;;;;5011258;28;20435;-69
2022/04/24 01:29:02;;;;;;;8.70;8.00;;;13.70;73.90;;;;;;5011253;28;20482;-69
2022/04/24 01:31:28;;;;;;;8.70;8.00;;;13.50;73.90;;;;;;5011757;28;20942;-68
2022/04/24 01:33:53;;;;;;;8.57;7.87;;;13.30;74.90;;;;;;5011647;28;20531;-69
2022/04/24 01:36:19;;;;;;;8.30;7.60;;;13.30;75.10;;;;;;5010305;28;20228;-70
2022/04/24 01:38:45;;;;;;;8.60;7.87;;;13.20;75.40;;;;;;5010731;28;20844;-69
2022/04/24 01:41:11;;;;;;;9.03;8.33;;;13.20;76.10;;;;;;5010665;28;20238;-69
2022/04/24 01:43:37;;;;;;;9.73;8.93;;;13.00;76.00;;;;;;5009977;28;20431;-69
2022/04/24 01:46:04;;;;;;;9.20;8.40;;;12.80;76.70;;;;;;5012259;28;20190;-69
2022/04/24 01:48:33;;;;;;;8.97;8.27;;;12.60;77.70;;;;;;5010007;28;20473;-69
2022/04/24 01:51:00;;;;;;;9.80;8.80;;;12.60;78.10;;;;;;5012566;28;20465;-69
2022/04/24 01:53:26;;;;;;;8.97;8.17;;;12.50;78.30;;;;;;5009529;28;20444;-73
2022/04/24 01:55:52;;;;;;;9.07;8.17;;;12.30;79.20;;;;;;5010365;28;21018;-69
2022/04/24 01:58:17;;;;;;;9.27;8.40;;;12.60;79.80;;;;;;4992677;28;20570;-74
2022/04/24 02:00:43;;;;;;;8.80;8.03;;;12.60;79.70;;;;;;5010717;28;20273;-68
2022/04/24 02:03:09;;;;;;;9.10;8.27;;;12.60;79.30;;;;;;5010488;28;20193;-69
2022/04/24 02:05:34;;;;;;;9.63;8.80;;;12.60;79.00;;;;;;5008848;28;20198;-68
2022/04/24 02:08:00;;;;;;;9.03;8.23;;;12.50;79.40;;;;;;5011355;28;20183;-68
2022/04/24 02:10:26;;;;;;;9.40;8.70;;;12.50;79.20;;;;;;5011505;28;20253;-69
2022/04/24 02:12:51;;;;;;;8.77;8.07;;;12.40;79.00;;;;;;4999251;28;20232;-69
2022/04/24 02:15:17;;;;;;;9.20;8.30;;;12.50;79.70;;;;;;5011308;28;20631;-74
2022/04/24 02:17:43;;;;;;;9.40;8.60;;;12.60;79.50;;;;;;5010569;28;20189;-68
2022/04/24 02:20:09;;;;;;;8.70;8.00;;;12.60;79.30;;;;;;5011155;28;20195;-69
2022/04/24 02:22:35;;;;;;;9.07;8.27;;;12.70;79.50;;;;;;5010773;28;20250;-68
2022/04/24 02:25:04;;;;;;;9.20;8.40;;;12.70;79.50;;;;;;5012121;28;20499;-68
2022/04/24 02:27:30;;;;;;;9.77;8.83;;;12.70;78.80;;;;;;5007182;28;20989;-68
2022/04/24 02:29:56;;;;;;;9.17;7.97;;;12.60;79.00;;;;;;5010802;28;20467;-69
2022/04/24 02:32:22;;;;;;;9.10;8.40;;;12.50;79.00;;;;;;5008361;28;20438;-69
2022/04/24 02:34:47;;;;;;;9.90;9.10;;;12.40;79.50;;;;;;5012073;28;20182;-69
2022/04/24 02:37:13;;;;;;;9.17;8.37;;;12.50;79.90;;;;;;5019160;28;20187;-69
2022/04/24 02:39:39;;;;;;;9.97;8.93;;;12.40;79.60;;;;;;5015917;28;20652;-68
2022/04/24 02:42:05;;;;;;;10.77;9.30;;;12.40;80.00;;;;;;5018103;28;20435;-69
2022/04/24 02:44:31;;;;;;;11.80;10.80;;;12.50;80.20;;;;;;5015433;28;20595;-69
2022/04/24 02:46:56;;;;;;;10.10;9.20;;;12.50;80.40;;;;;;5013849;28;20213;-70
2022/04/24 02:49:22;;;;;;;10.87;9.90;;;12.60;80.60;;;;;;5015881;28;20229;-69
2022/04/24 02:51:48;;;;;;;12.50;11.40;;;12.60;81.40;;;;;;5016810;28;20211;-69
2022/04/24 02:54:14;;;;;;;11.30;10.20;;;12.60;81.00;;;;;;5016606;28;20192;-68
2022/04/24 02:56:39;;;;;;;11.57;10.50;;;12.70;80.80;;;;;;5015276;28;20371;-68
2022/04/24 02:59:05;;;;;;;11.70;10.60;;;12.70;81.10;;;;;;5016797;28;20173;-73
2022/04/24 03:01:31;;;;;;;11.77;10.73;;;12.70;81.10;;;;;;5014220;28;20646;-68
2022/04/24 03:03:57;;;;;;;11.27;10.33;;;12.70;81.20;;;;;;5017403;28;20653;-68
2022/04/24 03:06:23;;;;;;;12.20;11.00;;;12.70;82.70;;;;;;5016028;28;20317;-69
2022/04/24 03:08:49;;;;;;;11.20;10.30;;;12.60;82.80;;;;;;5016386;28;20525;-69
2022/04/24 03:11:15;;;;;;;11.60;10.53;;;12.60;81.90;;;;;;5017048;28;20210;-68
2022/04/24 03:13:41;;;;;;;11.50;10.50;;;12.60;82.50;;;;;;5016349;28;20778;-68
2022/04/24 03:16:08;;;;;;;11.13;10.23;;;12.60;82.40;;;;;;5013991;28;20528;-68
2022/04/24 03:18:34;;;;;;;11.90;10.90;;;12.60;82.10;;;;;;5016941;28;20440;-68
2022/04/24 03:20:59;;;;;;;11.73;10.73;;;12.50;82.70;;;;;;5015862;28;20444;-68
2022/04/24 03:23:25;;;;;;;11.17;10.20;;;12.60;83.10;;;;;;5015614;28;20202;-69
2022/04/24 03:25:51;;;;;;;11.93;10.93;;;12.50;82.20;;;;;;5016767;28;20420;-68
2022/04/24 03:28:17;;;;;;;11.77;10.70;;;12.50;82.50;;;;;;5017164;28;20695;-69
2022/04/24 03:30:43;;;;;;;12.90;11.70;;;12.50;82.50;;;;;;5015428;28;20218;-69
2022/04/24 03:33:09;;;;;;;12.30;11.20;;;12.50;82.90;;;;;;5017124;28;20442;-68
2022/04/24 03:35:35;;;;;;;11.00;10.00;;;12.40;82.70;;;;;;5017018;28;20448;-68
2022/04/24 03:38:01;;;;;;;10.20;9.30;;;12.50;82.40;;;;;;5015241;28;20456;-68
2022/04/24 03:40:26;;;;;;;10.73;9.70;;;12.50;82.10;;;;;;5014832;28;20809;-72
2022/04/24 03:42:52;;;;;;;12.20;11.00;;;12.50;82.00;;;;;;5017606;28;20441;-68
2022/04/24 03:45:18;;;;;;;11.63;10.60;;;12.50;82.50;;;;;;5015581;28;20195;-68
2022/04/24 03:47:44;;;;;;;10.83;9.83;;;12.50;81.50;;;;;;5009642;28;20840;-68
2022/04/24 03:50:10;;;;;;;11.93;10.73;;;12.40;81.50;;;;;;5030552;28;20245;-68
2022/04/24 03:52:35;;;;;;;11.93;10.93;;;12.40;82.30;;;;;;5012590;28;20192;-68
2022/04/24 03:55:02;;;;;;;11.97;10.93;;;12.30;82.00;;;;;;5011822;28;20437;-68
2022/04/24 03:57:28;;;;;;;12.17;11.07;;;12.30;82.40;;;;;;5011425;28;20581;-69
2022/04/24 03:59:54;;;;;;;12.23;11.03;;;12.30;82.60;;;;;;5012157;28;20435;-68
2022/04/24 04:02:20;;;;;;;12.10;11.00;;;12.30;83.20;;;;;;5012190;28;20431;-68
2022/04/24 04:04:45;;;;;;;11.87;10.77;;;12.20;83.90;;;;;;5012027;28;20191;-68
2022/04/24 04:07:11;;;;;;;11.30;10.30;;;12.20;83.40;;;;;;5012627;28;20331;-69
2022/04/24 04:09:37;;;;;;;12.60;11.50;;;12.20;83.30;;;;;;5011991;28;20184;-70
2022/04/24 04:12:03;;;;;;;11.77;10.60;;;12.20;83.90;;;;;;5013735;28;20210;-68
2022/04/24 04:14:28;;;;;;;11.37;10.33;;;12.10;84.10;;;;;;5010273;28;20215;-69
2022/04/24 04:16:54;;;;;;;11.30;10.30;;;12.00;84.20;;;;;;5012180;28;20584;-68
2022/04/24 04:19:20;;;;;;;11.03;10.13;;;12.10;84.60;;;;;;5012185;28;20195;-68
2022/04/24 04:21:45;;;;;;;11.73;10.73;;;12.10;85.30;;;;;;5010346;28;20187;-68
2022/04/24 04:24:12;;;;;;;12.10;10.90;;;12.00;85.10;;;;;;5013222;28;20662;-68
2022/04/24 04:26:38;;;;;;;12.80;11.50;;;12.00;85.20;;;;;;5010501;28;20191;-68
2022/04/24 04:29:04;;;;;;;12.90;10.80;;;11.90;85.80;;;;;;5012989;28;20922;-68
2022/04/24 04:31:30;;;;;;;12.30;11.10;;;11.90;86.40;;;;;;5011808;28;20484;-69
2022/04/24 04:33:56;;;;;;;12.57;11.37;;;11.90;87.10;;;;;;5011045;28;20193;-69
2022/04/24 04:36:21;;;;;;;12.33;11.20;;;11.90;86.80;;;;;;5012377;28;20424;-69
2022/04/24 04:38:47;;;;;;;12.33;11.13;;;11.80;87.00;;;;;;5012649;28;20750;-68
2022/04/24 04:41:12;;;;;;;12.37;11.30;;;11.90;86.80;;;;;;5012338;28;20191;-73
2022/04/24 04:43:38;;;;;;;11.90;10.77;;;11.90;86.70;;;;;;5011071;28;20209;-68
2022/04/24 04:46:04;;;;;;;12.30;11.03;;;11.90;87.00;;;;;;5010809;28;20527;-68
2022/04/24 04:48:31;;;;;;;12.40;11.20;;;11.90;87.00;;;;;;5009531;28;20468;-68
2022/04/24 04:50:56;;;;;;;12.37;11.17;;;11.90;87.70;;;;;;5011483;28;20464;-69
2022/04/24 04:53:23;;;;;;;13.23;12.03;;;11.80;88.50;;;;;;5010315;28;20491;-69
2022/04/24 04:55:49;;;;;;;12.90;11.60;;;11.80;88.20;;;;;;5012884;28;20227;-68
2022/04/24 04:58:15;;;;;;;11.87;10.67;;;11.80;90.10;;;;;;5010990;28;20514;-68
2022/04/24 05:00:41;;;;;;;12.80;11.60;;;11.80;89.60;;;;;;5011948;28;20437;-68
2022/04/24 05:03:07;;;;;;;12.50;11.20;;;11.80;89.30;;;;;;5011496;28;20448;-69
2022/04/24 05:05:33;;;;;;;11.97;10.87;;;11.90;89.40;;;;;;5011042;28;20520;-69
2022/04/24 05:07:59;;;;;;;13.20;11.87;;;11.90;89.60;;;;;;5011741;28;20568;-69
2022/04/24 05:10:24;;;;;;;12.27;10.83;;;11.80;90.00;;;;;;5011377;28;20207;-68
2022/04/24 05:12:50;;;;;;;11.70;10.70;;;11.70;89.80;;;;;;5010491;28;20430;-69
2022/04/24 05:15:16;;;;;;;12.60;11.33;;;11.60;90.20;;;;;;5011252;28;20184;-69
2022/04/24 05:17:44;;;;;;;13.37;12.07;;;11.70;90.50;;;;;;5011673;28;20198;-69
2022/04/24 05:20:11;;;;;;;13.53;12.00;;;11.70;90.90;;;;;;5010216;28;20533;-68
2022/04/24 05:22:39;;;;;;;13.10;11.80;;;11.70;91.10;;;;;;5010152;28;20422;-69
2022/04/24 05:25:07;;;;;;;13.53;12.23;;;11.70;91.00;;;;;;5012303;28;20446;-69
2022/04/24 05:27:33;;;;;;;12.70;11.57;;;11.60;90.90;;;;;;5010598;28;20435;-69
2022/04/24 05:29:58;;;;;;;12.50;11.20;;;11.70;91.40;;;;;;5008623;28;22304;-68
2022/04/24 05:32:24;;;;;;;13.33;11.97;;;11.60;91.60;;;;;;5007174;28;20448;-70
2022/04/24 05:34:50;;;;;;;12.17;10.93;;;11.50;91.80;;;;;;5010263;28;20193;-71
2022/04/24 05:37:16;;;;;;;11.67;10.57;;;11.60;92.20;;;;;;5011115;28;20511;-68
2022/04/24 05:39:42;;;;;;;12.23;11.13;;;11.70;91.40;;;;;;5009374;28;20433;-68
2022/04/24 05:42:07;;;;;;;11.97;10.70;;;11.80;91.90;;;;;;5009401;28;20205;-69
2022/04/24 05:44:33;;;;;;;11.17;10.17;;;11.80;91.50;;;;;;5005987;28;20277;-71
2022/04/24 05:46:59;;;;;;;11.50;10.40;;;11.90;91.20;;;;;;5008769;28;20459;-70
2022/04/24 05:49:25;;;;;;;11.37;10.37;;;11.80;91.00;;;;;;5005393;28;20310;-70
2022/04/24 05:51:50;;;;;;;11.83;10.73;;;11.90;91.40;;;;;;4999786;28;20466;-71
2022/04/24 05:54:16;;;;;;;11.10;10.10;;;11.90;91.80;;;;;;5009330;28;20191;-70
2022/04/24 05:56:42;;;;;;;11.90;10.80;;;11.90;91.40;;;;;;5005508;28;20193;-71
2022/04/24 05:59:08;;;;;;;10.40;9.50;;;12.00;91.50;;;;;;5002052;28;20222;-71
2022/04/24 06:01:34;;;;;;;11.40;10.30;;;12.00;91.80;;;;;;5011178;28;20187;-70
2022/04/24 06:04:01;;;;;;;11.00;10.00;;;12.00;91.50;;;;;;5010538;28;20940;-69
2022/04/24 06:06:30;;;;;;;11.63;9.83;;;12.00;91.50;;;;;;5008552;28;20975;-69
2022/04/24 06:08:57;;;;;;;12.17;10.57;;;12.10;91.60;;;;;;5010206;28;20425;-69
2022/04/24 06:11:22;;;;;;;11.70;10.60;;;12.00;91.70;;;;;;5008941;28;20494;-71
2022/04/24 06:13:48;;;;;;;10.70;9.77;;;12.10;97.80;;;;;;5007518;28;20469;-70
2022/04/24 06:16:14;;;;;;;11.50;10.23;;;12.30;99.50;;;;;;5003921;28;21135;-70
2022/04/24 06:18:39;;;;;;;12.47;10.77;;;12.60;99.90;;;;;;4999000;28;20197;-70
2022/04/24 06:21:06;;;;;;;10.77;9.63;;;13.00;99.90;;;;;;5008259;28;20608;-70
2022/04/24 06:23:32;;;;;;;11.97;10.77;;;13.50;99.90;;;;;;5001233;28;20186;-72
2022/04/24 06:25:58;;;;;;;12.13;9.50;;;13.90;99.90;;;;;;5004937;28;20460;-72
2022/04/24 06:28:24;;;;;;;10.37;9.23;;;14.50;99.90;;;;;;5007762;28;20183;-71
2022/04/24 06:30:50;;;;;;;11.57;10.47;;;14.70;99.90;;;;;;4986947;28;20461;-71
2022/04/24 06:33:20;;;;;;;10.83;9.93;;;14.90;99.90;;;;;;5009177;28;20444;-70
2022/04/24 06:35:45;;;;;;;11.23;10.13;;;15.00;94.70;;;;;;5009015;28;20188;-71
2022/04/24 06:38:12;;;;;;;12.10;10.23;;;14.80;90.90;;;;;;5003434;28;20437;-71
2022/04/24 06:40:39;;;;;;;10.60;9.60;;;14.60;90.00;;;;;;5000272;28;20290;-72
2022/04/24 06:43:07;;;;;;;10.97;9.87;;;14.30;89.40;;;;;;5002128;28;20438;-73
2022/04/24 06:45:41;;;;;;;15.90;11.27;;;13.90;91.30;;;;;;5006152;28;20424;-79
2022/04/24 06:48:12;;;;;;;11.00;10.10;;;13.80;92.20;;;;;;5009330;28;20467;-72
2022/04/24 06:50:42;;;;;;;10.73;9.77;;;13.60;90.80;;;;;;5004653;28;20508;-72
2022/04/24 06:53:11;;;;;;;119.67;95.60;;;13.50;92.60;;;;;;5006940;28;20479;-73
2022/04/24 06:55:40;;;;;;;226.70;155.30;;;13.40;92.20;;;;;;5005381;28;20445;-72
2022/04/24 06:58:07;;;;;;;39.83;30.53;;;13.30;91.70;;;;;;5011059;28;20443;-72
2022/04/24 07:00:36;;;;;;;39.63;26.93;;;13.30;93.00;;;;;;5007764;28;20900;-79
2022/04/24 07:03:24;;;;;;;28.23;21.40;;;13.30;92.70;;;;;;5006350;28;20487;-73
2022/04/24 07:06:00;;;;;;;17.97;14.27;;;13.20;92.00;;;;;;5003875;28;20434;-73
2022/04/24 07:08:27;;;;;;;32.60;28.10;;;13.10;93.10;;;;;;5004844;28;20435;-70
2022/04/24 07:10:54;;;;;;;12.57;11.37;;;13.30;92.40;;;;;;5007697;28;21074;-72
2022/04/24 07:13:20;;;;;;;14.67;10.20;;;13.30;92.50;;;;;;5010008;28;20524;-70
2022/04/24 07:15:46;;;;;;;10.80;9.77;;;13.20;92.30;;;;;;5001984;28;20973;-72
2022/04/24 07:18:12;;;;;;;11.50;10.43;;;13.20;92.50;;;;;;5010762;28;20443;-71
2022/04/24 07:20:39;;;;;;;11.17;10.13;;;13.20;92.50;;;;;;5008884;28;20428;-72
2022/04/24 07:23:05;;;;;;;11.27;10.13;;;13.20;91.70;;;;;;5014497;28;20441;-71
2022/04/24 07:25:45;;;;;;;11.10;10.00;;;13.30;93.10;;;;;;5014632;28;20432;-75
2022/04/24 07:28:12;;;;;;;11.10;10.10;;;13.30;91.70;;;;;;4987102;28;20450;-72
2022/04/24 07:30:39;;;;;;;10.87;9.90;;;13.40;92.70;;;;;;5012953;28;20474;-72
2022/04/24 07:33:05;;;;;;;11.23;9.93;;;13.50;92.30;;;;;;5009644;28;20440;-70
2022/04/24 07:35:36;;;;;;;11.43;10.53;;;13.50;92.30;;;;;;4995695;28;20434;-70
2022/04/24 07:38:03;;;;;;;10.70;9.80;;;13.60;91.50;;;;;;5008360;28;20174;-69
2022/04/24 07:40:31;;;;;;;11.57;10.67;;;13.70;92.20;;;;;;5010300;28;20471;-68
2022/04/24 07:42:59;;;;;;;12.20;11.10;;;13.80;92.90;;;;;;5011626;28;20445;-69
2022/04/24 07:45:36;;;;;;;11.30;10.30;;;13.80;92.90;;;;;;5011330;28;20428;-68
2022/04/24 07:48:05;;;;;;;11.60;10.50;;;13.90;92.50;;;;;;5013103;28;20519;-69
2022/04/24 07:50:38;;;;;;;11.40;10.30;;;14.00;92.00;;;;;;5013251;28;20515;-69
2022/04/24 07:53:05;;;;;;;10.77;9.77;;;14.00;91.70;;;;;;5001251;28;20772;-68
2022/04/24 07:55:32;;;;;;;10.90;9.80;;;14.10;92.00;;;;;;5013188;28;20476;-69
2022/04/24 07:57:58;;;;;;;11.80;9.60;;;14.20;91.00;;;;;;5010750;28;20434;-68
2022/04/24 08:00:31;;;;;;;10.33;9.43;;;14.20;90.80;;;;;;5013627;28;20425;-69
2022/04/24 08:03:01;;;;;;;11.43;10.27;;;14.20;91.00;;;;;;5001071;28;20422;-68
2022/04/24 08:05:29;;;;;;;10.47;9.37;;;14.30;91.10;;;;;;5013613;28;20447;-69
2022/04/24 08:07:58;;;;;;;10.60;9.60;;;14.30;90.50;;;;;;5006823;28;20418;-69
2022/04/24 08:10:28;;;;;;;159.57;107.77;;;14.50;91.10;;;;;;5008445;28;20466;-68
2022/04/24 08:12:55;;;;;;;56.77;45.73;;;14.60;90.70;;;;;;5011725;28;20721;-68
2022/04/24 08:15:20;;;;;;;50.63;31.43;;;14.70;90.00;;;;;;5009375;28;20510;-69
2022/04/24 08:17:47;;;;;;;10.93;9.83;;;14.90;90.10;;;;;;5010752;28;20889;-68
2022/04/24 08:20:14;;;;;;;13.00;10.60;;;15.00;90.40;;;;;;5009795;28;20444;-68
2022/04/24 08:22:50;;;;;;;11.33;10.33;;;15.10;89.80;;;;;;4997647;28;20467;-68
2022/04/24 08:25:23;;;;;;;10.87;9.87;;;15.20;87.60;;;;;;5013062;28;20436;-69
2022/04/24 08:27:51;;;;;;;10.80;9.70;;;15.30;86.80;;;;;;5010037;28;20868;-68
2022/04/24 08:30:19;;;;;;;11.63;10.40;;;15.50;89.90;;;;;;5010106;28;20823;-69
2022/04/24 08:32:45;;;;;;;11.70;10.50;;;15.60;86.60;;;;;;5009729;28;20442;-70
2022/04/24 08:35:13;;;;;;;12.20;11.10;;;15.70;86.80;;;;;;5012172;28;20780;-68
2022/04/24 08:37:40;;;;;;;11.63;10.63;;;15.80;86.60;;;;;;5012215;28;20505;-71
2022/04/24 08:40:08;;;;;;;12.47;11.27;;;15.90;85.30;;;;;;5009803;28;20536;-68
2022/04/24 08:42:35;;;;;;;11.97;10.77;;;16.00;84.30;;;;;;5009868;28;20475;-68
2022/04/24 08:45:03;;;;;;;11.40;10.40;;;16.20;87.40;;;;;;5012906;28;20434;-68
2022/04/24 08:47:29;;;;;;;10.40;9.50;;;16.30;83.90;;;;;;5010409;28;20484;-68
2022/04/24 08:49:57;;;;;;;11.17;10.20;;;16.40;84.80;;;;;;4995135;28;20481;-70
2022/04/24 08:52:24;;;;;;;13.53;10.97;;;16.40;81.60;;;;;;5012586;28;20437;-70
2022/04/24 08:54:51;;;;;;;12.07;11.00;;;16.40;80.90;;;;;;5010727;28;20441;-70
2022/04/24 08:57:18;;;;;;;12.00;10.77;;;16.60;83.80;;;;;;5006692;28;20945;-70
2022/04/24 08:59:45;;;;;;;11.40;10.40;;;16.70;80.80;;;;;;5006570;28;20771;-70
2022/04/24 09:02:11;;;;;;;11.33;10.30;;;16.90;79.60;;;;;;5009540;28;20441;-70
2022/04/24 09:04:38;;;;;;;13.40;12.20;;;17.00;82.20;;;;;;5007494;28;20430;-74
2022/04/24 09:07:08;;;;;;;15.00;13.50;;;17.00;81.10;;;;;;5010458;28;20225;-73
2022/04/24 09:09:43;;;;;;;11.30;10.40;;;17.10;80.00;;;;;;5010745;28;20426;-72
2022/04/24 09:12:11;;;;;;;83.93;73.37;;;17.00;76.60;;;;;;5008662;28;20476;-73
2022/04/24 09:14:38;;;;;;;25.57;22.83;;;17.10;83.20;;;;;;5009998;28;20442;-76
2022/04/24 09:17:35;;;;;;;16.30;14.70;;;17.30;82.00;;;;;;5010962;28;20461;-74
2022/04/24 09:20:14;;;;;;;11.70;10.70;;;17.50;82.80;;;;;;5010343;28;20449;-72
2022/04/24 09:22:40;;;;;;;13.93;11.33;;;17.70;78.90;;;;;;4994914;28;20827;-74
2022/04/24 09:25:07;;;;;;;12.30;11.10;;;17.80;79.40;;;;;;5010789;28;21021;-73
2022/04/24 09:27:35;;;;;;;32.33;27.40;;;17.90;79.00;;;;;;5010449;28;20584;-72
2022/04/24 09:30:05;;;;;;;24.13;17.10;;;17.90;74.90;;;;;;5010856;28;20430;-71
2022/04/24 09:32:37;;;;;;;14.17;12.80;;;17.90;79.30;;;;;;5011028;28;20442;-72
2022/04/24 09:35:03;;;;;;;13.17;11.87;;;17.90;77.20;;;;;;5011191;28;20860;-71
2022/04/24 09:37:39;;;;;;;13.73;12.57;;;18.10;83.30;;;;;;5023507;28;20434;-70
2022/04/24 09:40:06;;;;;;;12.40;11.13;;;18.20;79.00;;;;;;5008888;28;20917;-67
2022/04/24 09:42:31;;;;;;;13.63;12.43;;;18.30;75.80;;;;;;5001052;28;20438;-72
2022/04/24 09:44:58;;;;;;;13.73;12.40;;;18.40;74.80;;;;;;5007567;28;20449;-70
2022/04/24 09:47:26;;;;;;;15.50;14.03;;;18.50;74.10;;;;;;5010994;28;20187;-69
2022/04/24 09:49:53;;;;;;;14.60;13.40;;;18.50;75.00;;;;;;5010125;28;20469;-68
2022/04/24 09:52:22;;;;;;;13.47;12.27;;;18.60;73.60;;;;;;5016625;28;20949;-68
2022/04/24 09:54:53;;;;;;;13.67;12.57;;;18.70;71.20;;;;;;5008429;28;20464;-69
2022/04/24 09:57:22;;;;;;;13.37;12.27;;;18.80;74.30;;;;;;5009227;28;20529;-69
2022/04/24 09:59:50;;;;;;;13.43;12.33;;;19.00;72.50;;;;;;5010711;28;20444;-68
2022/04/24 10:02:18;;;;;;;14.17;13.00;;;19.00;71.80;;;;;;4991477;28;20459;-70
2022/04/24 10:04:46;;;;;;;13.73;12.60;;;19.20;70.10;;;;;;5004822;28;20429;-73
2022/04/24 10:07:16;;;;;;;14.80;13.50;;;19.20;71.80;;;;;;5008137;28;20466;-72
2022/04/24 10:09:44;;;;;;;12.97;11.87;;;19.30;70.50;;;;;;5009375;28;20452;-73
2022/04/24 10:12:15;;;;;;;12.23;11.03;;;19.30;68.60;;;;;;5011182;28;20511;-72
2022/04/24 10:14:55;;;;;;;12.47;11.47;;;19.40;70.00;;;;;;5008935;28;20434;-76
2022/04/24 10:17:33;;;;;;;13.33;12.10;;;19.60;71.70;;;;;;5008999;28;20665;-71
2022/04/24 10:20:19;;;;;;;11.87;10.87;;;19.70;68.30;;;;;;5006298;28;20922;-70
2022/04/24 10:22:47;;;;;;;12.20;11.20;;;19.60;65.50;;;;;;5008811;28;20439;-73
2022/04/24 10:25:17;;;;;;;12.07;11.07;;;19.70;67.90;;;;;;5010396;28;20459;-71
2022/04/24 10:27:45;;;;;;;13.20;12.00;;;19.70;65.20;;;;;;5007675;28;20499;-77
2022/04/24 10:30:25;;;;;;;12.67;11.57;;;19.80;66.50;;;;;;5007975;28;21328;-73
2022/04/24 10:33:15;;;;;;;13.30;12.10;;;19.90;70.80;;;;;;5017812;28;20464;-79
2022/04/24 10:35:48;;;;;;;13.87;12.67;;;20.00;64.20;;;;;;5009052;28;20798;-77
2022/04/24 10:38:14;;;;;;;12.77;11.77;;;20.10;65.90;;;;;;4980605;28;20517;-75
2022/04/24 10:40:40;;;;;;;13.80;12.20;;;20.10;64.90;;;;;;5010648;28;20537;-72
2022/04/24 10:43:10;;;;;;;11.70;10.80;;;20.20;75.10;;;;;;5005859;28;20512;-72
2022/04/24 10:45:46;;;;;;;12.27;11.27;;;20.50;68.20;;;;;;5008303;28;20232;-71
2022/04/24 10:48:16;;;;;;;13.17;11.93;;;20.50;64.20;;;;;;5007689;28;20480;-72
2022/04/24 10:50:49;;;;;;;13.20;12.07;;;20.60;60.70;;;;;;5009737;28;20557;-71
2022/04/24 10:53:15;;;;;;;12.13;11.03;;;20.50;60.20;;;;;;5008836;28;20456;-73
2022/04/24 10:55:42;;;;;;;11.60;10.50;;;20.30;58.50;;;;;;4992919;28;20476;-71
2022/04/24 10:58:09;;;;;;;12.43;11.40;;;20.30;60.40;;;;;;5013482;28;20469;-71
2022/04/24 11:00:37;;;;;;;11.17;10.37;;;20.30;59.80;;;;;;5012161;28;20445;-71
2022/04/24 11:03:14;;;;;;;13.00;11.70;;;20.30;59.80;;;;;;5013974;28;20433;-72
2022/04/24 11:05:42;;;;;;;13.47;12.20;;;20.50;64.60;;;;;;5012535;28;20492;-72
2022/04/24 11:08:09;;;;;;;12.87;11.73;;;20.50;59.40;;;;;;5029787;28;20457;-72
2022/04/24 11:10:43;;;;;;;12.70;11.70;;;20.60;59.90;;;;;;5015614;28;20492;-72
2022/04/24 11:13:16;;;;;;;11.87;10.77;;;20.60;58.30;;;;;;5015235;28;20426;-72
2022/04/24 11:15:44;;;;;;;12.50;11.37;;;20.50;58.10;;;;;;5015612;28;20410;-72
2022/04/24 11:18:36;;;;;;;10.47;9.60;;;20.40;58.40;;;;;;5013746;28;20948;-72
2022/04/24 11:21:07;;;;;;;12.20;11.20;;;20.40;59.40;;;;;;5010812;28;20528;-72
2022/04/24 11:23:35;;;;;;;11.43;10.53;;;20.50;58.80;;;;;;5015899;28;20849;-72
2022/04/24 11:26:05;;;;;;;11.53;10.63;;;20.70;59.00;;;;;;5012685;28;21157;-73
2022/04/24 11:28:35;;;;;;;12.43;11.53;;;20.90;58.60;;;;;;5011186;28;21264;-76
2022/04/24 11:31:18;;;;;;;11.77;10.77;;;20.90;56.70;;;;;;5013395;28;20457;-76
2022/04/24 11:36:58;;;;;;;12.80;11.80;;;21.00;58.50;;;;;;5013884;28;20497;-75
2022/04/24 11:39:25;;;;;;;12.10;11.10;;;21.10;59.50;;;;;;5014594;28;20472;-76
2022/04/24 11:41:52;;;;;;;12.03;11.13;;;21.20;56.70;;;;;;5015131;28;20458;-75
2022/04/24 11:50:14;;;;;;;12.50;11.47;;;21.50;59.30;;;;;;5014607;28;20450;-76
2022/04/24 11:52:46;;;;;;;12.77;11.77;;;21.50;55.70;;;;;;5015712;28;20509;-76
2022/04/24 11:55:21;;;;;;;12.17;11.20;;;21.60;55.30;;;;;;5015665;28;20431;-76
2022/04/24 11:57:57;;;;;;;11.00;10.20;;;21.70;54.40;;;;;;5015227;28;20470;-75
2022/04/24 12:00:45;;;;;;;11.83;10.93;;;21.80;57.00;;;;;;5015477;28;20422;-76
2022/04/24 12:03:11;;;;;;;11.47;10.57;;;21.80;55.40;;;;;;5015073;28;20472;-76
2022/04/24 12:05:37;;;;;;;12.63;11.73;;;21.80;56.00;;;;;;5015470;28;20895;-75
2022/04/24 12:08:04;;;;;;;11.63;10.73;;;21.70;53.90;;;;;;5014089;28;20444;-76
2022/04/24 12:10:30;;;;;;;12.77;11.87;;;21.70;54.50;;;;;;5015227;28;20206;-76
2022/04/24 12:12:56;;;;;;;13.13;12.03;;;21.70;54.80;;;;;;5014621;28;20425;-75
2022/04/24 12:15:23;;;;;;;13.20;12.10;;;21.70;52.90;;;;;;5015175;28;20172;-75
2022/04/24 12:17:56;;;;;;;12.27;11.27;;;21.70;54.40;;;;;;5014544;28;20198;-75
2022/04/24 12:20:40;;;;;;;11.37;10.30;;;21.60;53.20;;;;;;5013631;28;20409;-75
2022/04/24 12:23:13;;;;;;;11.50;10.63;;;21.50;54.10;;;;;;5014529;28;20394;-75
2022/04/24 12:25:58;;;;;;;11.43;10.43;;;21.40;54.30;;;;;;5015172;28;20736;-76
2022/04/24 12:28:29;;;;;;;11.23;10.43;;;21.50;54.60;;;;;;5015338;28;20410;-76
2022/04/24 12:30:56;;;;;;;11.33;10.40;;;21.70;55.90;;;;;;5014206;28;21011;-75
2022/04/24 12:33:22;;;;;;;11.90;11.00;;;21.60;55.00;;;;;;5015044;28;20594;-75
2022/04/24 12:35:48;;;;;;;12.10;11.10;;;21.40;55.00;;;;;;5014794;28;20971;-76
2022/04/24 12:38:19;;;;;;;13.90;9.93;;;21.20;53.20;;;;;;5014447;28;20218;-76
2022/04/24 12:40:59;;;;;;;11.37;10.53;;;21.10;55.10;;;;;;5014756;28;20417;-75
2022/04/24 12:43:30;;;;;;;11.87;10.87;;;21.20;56.40;;;;;;5014785;28;20402;-75
2022/04/24 12:45:57;;;;;;;11.00;10.10;;;21.30;56.70;;;;;;5014297;28;20421;-75